Time;durP1;ratioP1;P1;durP2;ratioP2;P2;SDS_P1;SDS_P2;PMS_P1;PMS_P2;Temp;Humidity;BMP_temperature;BMP_pressure;BME280_temperature;BME280_humidity;BME280_pressure;Samples;Min_cycle;Max_cycle;Signal;HPM_P1;HPM_P2
2021/06/23 00:00:36;;;;;;;;;;;27.20;92.50;;;;;;5103818;28;19912;-55
2021/06/23 00:03:03;;;;;;;;;;;27.20;92.50;;;;;;5103710;28;19920;-53
2021/06/23 00:05:29;;;;;;;;;;;27.20;92.50;;;;;;5103715;28;19916;-52
2021/06/23 00:07:55;;;;;;;;;;;27.20;92.30;;;;;;5103479;28;19915;-54
2021/06/23 00:10:22;;;;;;;;;;;27.20;92.20;;;;;;5102602;28;19912;-56
2021/06/23 00:12:51;;;;;;;;;;;27.20;92.50;;;;;;5103375;28;20248;-55
2021/06/23 00:15:18;;;;;;;;;;;27.20;92.60;;;;;;5103747;28;20207;-57
2021/06/23 00:17:46;;;;;;;;;;;27.10;92.80;;;;;;5103406;28;19904;-56
2021/06/23 00:20:14;;;;;;;;;;;27.10;92.70;;;;;;5103949;28;19912;-59
2021/06/23 00:22:40;;;;;;;;;;;27.10;92.80;;;;;;5104471;28;19912;-59
2021/06/23 00:25:06;;;;;;;;;;;27.00;92.90;;;;;;5107693;28;19912;-57
2021/06/23 00:27:32;;;;;;;;;;;27.00;93.20;;;;;;5105738;28;20250;-54
2021/06/23 00:29:59;;;;;;;;;;;26.90;93.40;;;;;;5107215;28;19953;-52
2021/06/23 00:32:25;;;;;;;;;;;26.90;93.40;;;;;;5105814;28;19939;-52
2021/06/23 00:34:52;;;;;;;;;;;26.90;93.40;;;;;;5107053;28;19920;-52
2021/06/23 00:37:18;;;;;;;;;;;27.00;93.40;;;;;;5107198;28;19935;-53
2021/06/23 00:39:44;;;;;;;;;;;27.00;93.30;;;;;;5107635;28;19916;-52
2021/06/23 00:42:11;;;;;;;;;;;27.00;93.30;;;;;;5106926;28;19904;-52
2021/06/23 00:44:40;;;;;;;;;;;27.00;93.30;;;;;;5107488;28;19919;-57
2021/06/23 00:47:07;;;;;;;;;;;27.00;93.40;;;;;;5107337;28;20097;-53
2021/06/23 00:49:34;;;;;;;;;;;27.00;93.30;;;;;;5105882;28;20089;-52
2021/06/23 00:52:01;;;;;;;;;;;27.00;93.30;;;;;;5107039;28;19904;-52
2021/06/23 00:54:27;;;;;;;;;;;27.00;93.20;;;;;;5107327;28;19912;-54
2021/06/23 00:56:56;;;;;;;;;;;27.00;93.20;;;;;;5106883;28;19971;-52
2021/06/23 00:59:22;;;;;;;;;;;27.00;93.10;;;;;;5107179;28;19946;-52
2021/06/23 01:01:48;;;;;;;;;;;27.00;93.10;;;;;;5106886;28;19904;-58
2021/06/23 01:04:15;;;;;;;;;;;27.10;93.20;;;;;;5106878;28;19957;-52
2021/06/23 01:06:41;;;;;;;;;;;27.00;93.30;;;;;;5106891;28;19912;-53
2021/06/23 01:09:10;;;;;;;;;;;27.00;93.00;;;;;;5106751;28;19916;-51
2021/06/23 01:12:06;;;;;;;;;;;27.00;92.90;;;;;;5106374;28;19911;-56
2021/06/23 01:14:34;;;;;;;;;;;27.00;92.90;;;;;;5102045;28;19919;-54
2021/06/23 01:17:02;;;;;;;;;;;27.00;92.80;;;;;;5106440;28;19904;-56
2021/06/23 01:19:31;;;;;;;;;;;27.00;92.60;;;;;;5106896;28;19918;-51
2021/06/23 01:21:57;;;;;;;;;;;27.00;92.60;;;;;;5105333;28;19904;-53
2021/06/23 01:24:24;;;;;;;;;;;27.00;92.50;;;;;;5106082;28;19912;-55
2021/06/23 01:26:50;;;;;;;;;;;27.00;92.50;;;;;;5105015;28;19923;-53
2021/06/23 01:29:16;;;;;;;;;;;27.00;92.50;;;;;;5106307;28;19927;-56
2021/06/23 01:31:43;;;;;;;;;;;27.00;92.50;;;;;;5105945;28;19904;-53
2021/06/23 01:34:09;;;;;;;;;;;26.90;92.40;;;;;;5106153;28;19912;-62
2021/06/23 01:36:35;;;;;;;;;;;27.00;92.40;;;;;;5105219;28;20175;-61
2021/06/23 01:39:01;;;;;;;;;;;26.90;92.40;;;;;;5106253;28;19988;-54
2021/06/23 01:41:27;;;;;;;;;;;26.90;92.20;;;;;;5106268;28;19967;-56
2021/06/23 01:43:54;;;;;;;;;;;26.90;92.00;;;;;;5105000;28;19939;-58
2021/06/23 01:46:20;;;;;;;;;;;26.90;92.20;;;;;;5105948;28;19919;-56
2021/06/23 01:48:46;;;;;;;;;;;26.80;92.10;;;;;;5104701;28;19931;-55
2021/06/23 01:51:12;;;;;;;;;;;26.90;92.30;;;;;;5105777;28;19965;-55
2021/06/23 01:53:39;;;;;;;;;;;26.90;92.40;;;;;;5105241;28;19917;-56
2021/06/23 01:56:06;;;;;;;;;;;26.90;92.50;;;;;;5105765;28;19908;-48
2021/06/23 01:58:39;;;;;;;;;;;26.90;92.30;;;;;;5105979;28;20199;-48
2021/06/23 02:01:31;;;;;;;;;;;26.80;92.10;;;;;;5104597;28;20188;-57
2021/06/23 02:03:57;;;;;;;;;;;26.80;92.10;;;;;;5105985;28;20100;-58
2021/06/23 02:06:39;;;;;;;;;;;26.80;92.30;;;;;;5105638;28;19926;-57
2021/06/23 02:09:12;;;;;;;;;;;26.80;92.40;;;;;;5105684;28;19916;-57
2021/06/23 02:11:43;;;;;;;;;;;26.90;92.50;;;;;;5105461;28;19912;-56
2021/06/23 02:14:16;;;;;;;;;;;26.90;92.50;;;;;;5105451;28;19909;-56
2021/06/23 02:16:42;;;;;;;;;;;26.90;92.40;;;;;;5105654;28;20108;-55
2021/06/23 02:19:09;;;;;;;;;;;26.90;92.50;;;;;;5105431;28;19908;-54
2021/06/23 02:21:39;;;;;;;;;;;26.90;92.50;;;;;;5105054;28;19908;-55
2021/06/23 02:24:06;;;;;;;;;;;26.90;92.50;;;;;;5105456;28;19912;-56
2021/06/23 02:26:33;;;;;;;;;;;26.90;92.60;;;;;;5105033;28;19930;-55
2021/06/23 02:29:00;;;;;;;;;;;26.90;92.60;;;;;;5105136;28;19920;-55
2021/06/23 02:31:27;;;;;;;;;;;26.90;92.60;;;;;;5104050;28;19971;-59
2021/06/23 02:33:56;;;;;;;;;;;26.90;92.60;;;;;;5084767;28;19927;-57
2021/06/23 02:36:24;;;;;;;;;;;26.90;92.60;;;;;;5084794;28;20238;-57
2021/06/23 02:38:51;;;;;;;;;;;26.90;92.70;;;;;;5084835;28;19912;-57
2021/06/23 02:41:18;;;;;;;;;;;26.90;92.70;;;;;;5084591;28;19904;-54
2021/06/23 02:43:44;;;;;;;;;;;26.90;92.70;;;;;;5084624;28;19916;-55
2021/06/23 02:46:11;;;;;;;;;;;26.90;92.70;;;;;;5084162;28;19912;-58
2021/06/23 02:48:37;;;;;;;;;;;26.90;92.70;;;;;;5084384;28;19917;-56
2021/06/23 02:51:12;;;;;;;;;;;26.90;92.70;;;;;;5084614;28;19904;-55
2021/06/23 02:53:39;;;;;;;;;;;26.90;92.80;;;;;;5084672;28;19912;-57
2021/06/23 02:56:05;;;;;;;;;;;26.90;92.80;;;;;;5084409;28;19916;-57
2021/06/23 02:58:32;;;;;;;;;;;26.90;92.80;;;;;;5084465;28;19932;-59
2021/06/23 03:00:59;;;;;;;;;;;26.90;92.80;;;;;;5084458;28;19944;-55
2021/06/23 03:03:25;;;;;;;;;;;26.80;92.80;;;;;;5083108;28;20182;-57
2021/06/23 03:05:51;;;;;;;;;;;26.90;92.90;;;;;;5084498;28;19908;-55
2021/06/23 03:08:18;;;;;;;;;;;26.90;92.80;;;;;;5084349;28;19923;-58
2021/06/23 03:10:44;;;;;;;;;;;26.80;92.80;;;;;;5084257;28;19908;-58
2021/06/23 03:13:10;;;;;;;;;;;26.80;92.80;;;;;;5084191;28;19975;-57
2021/06/23 03:15:37;;;;;;;;;;;26.80;92.90;;;;;;5084321;28;20109;-56
2021/06/23 03:18:03;;;;;;;;;;;26.80;92.90;;;;;;5082930;28;19904;-57
2021/06/23 03:20:30;;;;;;;;;;;26.80;93.00;;;;;;5084707;28;19932;-54
2021/06/23 03:22:56;;;;;;;;;;;26.80;93.10;;;;;;5084271;28;19983;-55
2021/06/23 03:25:23;;;;;;;;;;;26.70;93.00;;;;;;5084617;28;19908;-51
2021/06/23 03:27:53;;;;;;;;;;;26.80;93.10;;;;;;5083990;28;19961;-53
2021/06/23 03:30:20;;;;;;;;;;;26.70;93.10;;;;;;5084550;28;19920;-53
2021/06/23 03:32:48;;;;;;;;;;;26.70;93.10;;;;;;5083989;28;20189;-55
2021/06/23 03:35:15;;;;;;;;;;;26.80;93.20;;;;;;5084532;28;20070;-56
2021/06/23 03:37:41;;;;;;;;;;;26.70;93.20;;;;;;5084100;28;20212;-54
2021/06/23 03:40:08;;;;;;;;;;;26.70;93.10;;;;;;5084471;28;20249;-53
2021/06/23 03:42:34;;;;;;;;;;;26.70;93.10;;;;;;5084126;28;19932;-56
2021/06/23 03:45:00;;;;;;;;;;;26.70;93.10;;;;;;5082916;28;20213;-57
2021/06/23 03:47:26;;;;;;;;;;;26.70;93.10;;;;;;5084003;28;19931;-54
2021/06/23 03:49:53;;;;;;;;;;;26.70;93.20;;;;;;5084439;28;19955;-55
2021/06/23 03:52:19;;;;;;;;;;;26.60;93.10;;;;;;5084156;28;19908;-51
2021/06/23 03:54:45;;;;;;;;;;;26.70;93.20;;;;;;5084121;28;19983;-57
2021/06/23 03:57:11;;;;;;;;;;;26.60;93.30;;;;;;5083971;28;19922;-56
2021/06/23 03:59:37;;;;;;;;;;;26.60;93.30;;;;;;5088155;28;19908;-54
2021/06/23 04:02:04;;;;;;;;;;;26.60;93.40;;;;;;5087898;28;19912;-56
2021/06/23 04:04:30;;;;;;;;;;;26.60;93.30;;;;;;5088025;28;19920;-57
2021/06/23 04:06:56;;;;;;;;;;;26.60;93.30;;;;;;5087887;28;19940;-56
2021/06/23 04:09:22;;;;;;;;;;;26.60;93.30;;;;;;5087709;28;20190;-57
2021/06/23 04:11:49;;;;;;;;;;;26.60;93.20;;;;;;5087565;28;19909;-55
2021/06/23 04:14:15;;;;;;;;;;;26.60;93.20;;;;;;5087871;28;19909;-58
2021/06/23 04:16:41;;;;;;;;;;;26.60;93.20;;;;;;5087576;28;19939;-57
2021/06/23 04:19:07;;;;;;;;;;;26.60;93.30;;;;;;5087542;28;20093;-57
2021/06/23 04:21:34;;;;;;;;;;;26.50;93.20;;;;;;5087573;28;19923;-56
2021/06/23 04:24:00;;;;;;;;;;;26.60;93.30;;;;;;5087584;28;19913;-55
2021/06/23 04:26:26;;;;;;;;;;;26.50;93.20;;;;;;5087082;28;19908;-57
2021/06/23 04:28:52;;;;;;;;;;;26.50;93.30;;;;;;5087502;28;20109;-57
2021/06/23 04:31:18;;;;;;;;;;;26.50;93.20;;;;;;5087293;28;19946;-60
2021/06/23 04:33:45;;;;;;;;;;;26.50;93.50;;;;;;5087164;28;19912;-56
2021/06/23 04:36:11;;;;;;;;;;;26.50;93.30;;;;;;5087197;28;19904;-58
2021/06/23 04:38:37;;;;;;;;;;;26.40;93.30;;;;;;5087349;28;19912;-55
2021/06/23 04:41:04;;;;;;;;;;;26.40;93.30;;;;;;5087094;28;19905;-60
2021/06/23 04:43:30;;;;;;;;;;;26.40;93.30;;;;;;5087142;28;19924;-54
2021/06/23 04:45:56;;;;;;;;;;;26.40;93.40;;;;;;5087069;28;19975;-56
2021/06/23 04:48:22;;;;;;;;;;;26.40;93.40;;;;;;5102571;28;19915;-56
2021/06/23 04:50:49;;;;;;;;;;;26.40;93.40;;;;;;5086843;28;19911;-61
2021/06/23 04:53:15;;;;;;;;;;;26.30;93.40;;;;;;5086993;28;19911;-57
2021/06/23 04:55:41;;;;;;;;;;;26.30;93.40;;;;;;5086895;28;19975;-56
2021/06/23 04:58:07;;;;;;;;;;;26.30;93.40;;;;;;5086607;28;19963;-57
2021/06/23 05:00:33;;;;;;;;;;;26.30;93.40;;;;;;5087245;28;19913;-53
2021/06/23 05:03:00;;;;;;;;;;;26.30;93.50;;;;;;5086764;28;20105;-53
2021/06/23 05:05:26;;;;;;;;;;;26.20;93.50;;;;;;5086462;28;19916;-54
2021/06/23 05:07:53;;;;;;;;;;;26.20;93.50;;;;;;5086717;28;19914;-56
2021/06/23 05:10:20;;;;;;;;;;;26.30;93.50;;;;;;5086725;28;20105;-57
2021/06/23 05:12:46;;;;;;;;;;;26.20;93.50;;;;;;5086342;28;19978;-53
2021/06/23 05:15:12;;;;;;;;;;;26.20;93.50;;;;;;5086969;28;19913;-57
2021/06/23 05:17:39;;;;;;;;;;;26.10;93.60;;;;;;5086445;28;19935;-54
2021/06/23 05:20:05;;;;;;;;;;;26.10;93.60;;;;;;5086620;28;20089;-57
2021/06/23 05:22:31;;;;;;;;;;;26.10;93.60;;;;;;5086594;28;19904;-55
2021/06/23 05:24:58;;;;;;;;;;;26.10;93.60;;;;;;5086817;28;20188;-56
2021/06/23 05:27:24;;;;;;;;;;;26.10;93.70;;;;;;5085935;28;19917;-56
2021/06/23 05:29:51;;;;;;;;;;;26.10;93.50;;;;;;5085991;28;19916;-55
2021/06/23 05:32:17;;;;;;;;;;;26.10;93.40;;;;;;5086109;28;19911;-56
2021/06/23 05:34:43;;;;;;;;;;;26.10;93.40;;;;;;5086379;28;19916;-58
2021/06/23 05:37:09;;;;;;;;;;;26.10;93.40;;;;;;5086034;28;20143;-56
2021/06/23 05:39:35;;;;;;;;;;;26.10;93.30;;;;;;5086264;28;19943;-56
2021/06/23 05:42:02;;;;;;;;;;;26.00;93.30;;;;;;5085987;28;20258;-59
2021/06/23 05:44:28;;;;;;;;;;;26.00;93.30;;;;;;5086233;28;20002;-57
2021/06/23 05:46:55;;;;;;;;;;;26.00;93.50;;;;;;5085899;28;19911;-58
2021/06/23 05:49:21;;;;;;;;;;;26.00;93.30;;;;;;5085993;28;19923;-55
2021/06/23 05:51:47;;;;;;;;;;;26.00;93.30;;;;;;5085710;28;19905;-54
2021/06/23 05:54:14;;;;;;;;;;;26.00;93.30;;;;;;5085919;28;19913;-55
2021/06/23 05:56:40;;;;;;;;;;;26.00;93.30;;;;;;5085716;28;19905;-54
2021/06/23 05:59:06;;;;;;;;;;;26.00;93.20;;;;;;5085599;28;19912;-56
2021/06/23 06:01:32;;;;;;;;;;;26.00;93.30;;;;;;5085638;28;19939;-54
2021/06/23 06:03:58;;;;;;;;;;;26.00;93.40;;;;;;5085709;28;19954;-57
2021/06/23 06:06:25;;;;;;;;;;;26.00;93.40;;;;;;5085379;28;19926;-53
2021/06/23 06:08:51;;;;;;;;;;;26.00;93.40;;;;;;5085423;28;19924;-56
2021/06/23 06:11:17;;;;;;;;;;;25.90;93.30;;;;;;5085348;28;19908;-59
2021/06/23 06:13:43;;;;;;;;;;;25.90;93.40;;;;;;5085135;28;20201;-56
2021/06/23 06:16:10;;;;;;;;;;;25.90;93.40;;;;;;5085307;28;19942;-55
2021/06/23 06:18:36;;;;;;;;;;;25.90;93.40;;;;;;5085224;28;19979;-57
2021/06/23 06:21:02;;;;;;;;;;;25.90;93.40;;;;;;5084284;28;19904;-56
2021/06/23 06:23:29;;;;;;;;;;;25.90;93.40;;;;;;5085537;28;19904;-56
2021/06/23 06:25:55;;;;;;;;;;;25.90;93.40;;;;;;5085096;28;19936;-56
2021/06/23 06:28:22;;;;;;;;;;;25.90;93.40;;;;;;5084734;28;20083;-55
2021/06/23 06:30:48;;;;;;;;;;;25.90;93.40;;;;;;5084879;28;19909;-55
2021/06/23 06:33:15;;;;;;;;;;;25.90;93.40;;;;;;5084836;28;19905;-57
2021/06/23 06:35:42;;;;;;;;;;;25.90;93.40;;;;;;5084867;28;19994;-59
2021/06/23 06:38:08;;;;;;;;;;;25.90;93.40;;;;;;5084776;28;19904;-54
2021/06/23 06:40:34;;;;;;;;;;;25.90;93.30;;;;;;5085340;28;19919;-56
2021/06/23 06:43:00;;;;;;;;;;;25.90;93.40;;;;;;5084731;28;19914;-56
2021/06/23 06:45:27;;;;;;;;;;;25.90;93.30;;;;;;5085146;28;19954;-56
2021/06/23 06:47:53;;;;;;;;;;;25.90;93.20;;;;;;5084602;28;19987;-58
2021/06/23 06:50:19;;;;;;;;;;;25.90;93.20;;;;;;5085147;28;19936;-58
2021/06/23 06:52:45;;;;;;;;;;;25.90;93.20;;;;;;5084590;28;20105;-57
2021/06/23 06:55:12;;;;;;;;;;;25.90;93.10;;;;;;5085336;28;19912;-58
2021/06/23 06:57:38;;;;;;;;;;;25.90;93.00;;;;;;5084916;28;19939;-56
2021/06/23 07:00:05;;;;;;;;;;;25.90;93.00;;;;;;5084746;28;19946;-62
2021/06/23 07:02:31;;;;;;;;;;;25.90;92.90;;;;;;5083466;28;19919;-57
2021/06/23 07:04:57;;;;;;;;;;;25.90;92.90;;;;;;5084825;28;20124;-58
2021/06/23 07:07:23;;;;;;;;;;;25.90;92.90;;;;;;5084286;28;19908;-55
2021/06/23 07:09:50;;;;;;;;;;;25.90;92.90;;;;;;5084686;28;20083;-57
2021/06/23 07:12:16;;;;;;;;;;;25.90;92.90;;;;;;5084552;28;19932;-56
2021/06/23 07:14:42;;;;;;;;;;;25.90;92.90;;;;;;5084581;28;19908;-55
2021/06/23 07:17:08;;;;;;;;;;;25.90;92.90;;;;;;5084654;28;19912;-57
2021/06/23 07:19:34;;;;;;;;;;;25.90;92.80;;;;;;5084598;28;20097;-56
2021/06/23 07:22:01;;;;;;;;;;;25.90;92.70;;;;;;5084390;28;19908;-56
2021/06/23 07:24:27;;;;;;;;;;;25.90;92.70;;;;;;5084366;28;19971;-56
2021/06/23 07:26:58;;;;;;;;;;;25.90;92.60;;;;;;5084277;28;19924;-58
2021/06/23 07:29:27;;;;;;;;;;;25.90;92.60;;;;;;5084387;28;19916;-56
2021/06/23 07:32:02;;;;;;;;;;;25.80;92.40;;;;;;5086446;28;19913;-56
2021/06/23 07:36:59;;;;;;;;;;;25.80;92.40;;;;;;5090826;28;20193;-58
2021/06/23 07:39:25;;;;;;;;;;;25.80;92.40;;;;;;5091101;28;19950;-55
2021/06/23 07:41:51;;;;;;;;;;;25.80;92.40;;;;;;5090826;28;19904;-54
2021/06/23 07:44:21;;;;;;;;;;;25.80;92.30;;;;;;5090869;28;20181;-59
2021/06/23 07:46:50;;;;;;;;;;;25.80;92.30;;;;;;5090726;28;19954;-57
2021/06/23 07:49:18;;;;;;;;;;;25.80;92.20;;;;;;5090858;28;19923;-59
2021/06/23 08:10:03;;;;;;;;;;;25.70;92.30;;;;;;5090925;28;19962;-53
2021/06/23 08:12:54;;;;;;;;;;;25.70;92.20;;;;;;5090572;28;19905;-56
2021/06/23 08:15:16;;;;;;;;;;;25.70;92.20;;;;;;5090706;28;19950;-56
2021/06/23 08:17:42;;;;;;;;;;;25.70;92.20;;;;;;5090461;28;19905;-58
2021/06/23 08:20:08;;;;;;;;;;;25.70;92.30;;;;;;5090800;28;19913;-58
2021/06/23 08:22:35;;;;;;;;;;;25.70;92.30;;;;;;5090439;28;20186;-57
2021/06/23 08:25:02;;;;;;;;;;;25.70;92.20;;;;;;5090876;28;19915;-54
2021/06/23 08:27:28;;;;;;;;;;;25.70;92.20;;;;;;5090238;28;19916;-58
2021/06/23 08:29:54;;;;;;;;;;;25.60;92.20;;;;;;5090822;28;19951;-56
2021/06/23 08:32:20;;;;;;;;;;;25.70;92.20;;;;;;5090348;28;19904;-54
2021/06/23 08:34:46;;;;;;;;;;;25.60;92.30;;;;;;5090617;28;19919;-57
2021/06/23 08:37:13;;;;;;;;;;;25.60;92.30;;;;;;5090243;28;19909;-54
2021/06/23 08:39:39;;;;;;;;;;;25.60;92.30;;;;;;5090687;28;20190;-56
2021/06/23 08:42:05;;;;;;;;;;;25.60;92.30;;;;;;5090155;28;20152;-56
2021/06/23 08:44:31;;;;;;;;;;;25.50;92.40;;;;;;5086965;28;19920;-58
2021/06/23 08:46:59;;;;;;;;;;;25.50;92.30;;;;;;5087362;28;20193;-54
2021/06/23 08:49:26;;;;;;;;;;;25.50;92.30;;;;;;5087111;28;19917;-56
2021/06/23 08:51:53;;;;;;;;;;;25.50;92.30;;;;;;5086860;28;19916;-54
2021/06/23 08:54:20;;;;;;;;;;;25.50;92.20;;;;;;5085376;28;20226;-55
2021/06/23 08:56:46;;;;;;;;;;;25.50;92.10;;;;;;5084540;28;19913;-56
2021/06/23 08:59:12;;;;;;;;;;;25.50;92.10;;;;;;5086881;28;19909;-58
2021/06/23 09:01:42;;;;;;;;;;;25.50;92.10;;;;;;5086753;28;19950;-58
2021/06/23 09:04:09;;;;;;;;;;;25.50;92.00;;;;;;5087074;28;19939;-56
2021/06/23 09:06:55;;;;;;;;;;;25.50;92.10;;;;;;5086965;28;20247;-58
2021/06/23 09:09:25;;;;;;;;;;;25.50;92.10;;;;;;5086773;28;20131;-59
2021/06/23 09:11:52;;;;;;;;;;;25.50;92.10;;;;;;5086697;28;19951;-56
2021/06/23 09:14:19;;;;;;;;;;;25.50;92.00;;;;;;5086576;28;19909;-53
2021/06/23 09:17:06;;;;;;;;;;;25.50;92.00;;;;;;5086430;28;20105;-56
2021/06/23 09:19:43;;;;;;;;;;;25.50;92.10;;;;;;5086522;28;19915;-55
2021/06/23 09:22:28;;;;;;;;;;;25.50;92.10;;;;;;5085188;28;19954;-57
2021/06/23 09:24:54;;;;;;;;;;;25.50;92.00;;;;;;5086804;28;19908;-57
2021/06/23 09:27:21;;;;;;;;;;;25.50;92.00;;;;;;5085958;28;19923;-56
2021/06/23 09:29:50;;;;;;;;;;;25.50;92.00;;;;;;5086117;28;19924;-58
2021/06/23 09:32:17;;;;;;;;;;;25.50;91.90;;;;;;5086174;28;19912;-57
2021/06/23 09:34:47;;;;;;;;;;;25.60;91.90;;;;;;5086333;28;19909;-56
2021/06/23 09:37:22;;;;;;;;;;;25.60;91.90;;;;;;5086268;28;19915;-57
2021/06/23 09:39:50;;;;;;;;;;;25.60;91.90;;;;;;5086520;28;20204;-53
2021/06/23 09:42:16;;;;;;;;;;;25.60;91.90;;;;;;5085793;28;19915;-53
2021/06/23 09:44:46;;;;;;;;;;;25.60;91.90;;;;;;5086288;28;19913;-55
2021/06/23 09:47:12;;;;;;;;;;;25.60;91.90;;;;;;5085882;28;19915;-56
2021/06/23 09:49:44;;;;;;;;;;;25.60;91.80;;;;;;5085992;28;19916;-55
2021/06/23 09:52:10;;;;;;;;;;;25.60;91.80;;;;;;5085744;28;19908;-55
2021/06/23 09:54:47;;;;;;;;;;;25.60;91.70;;;;;;5085622;28;19912;-57
2021/06/23 09:57:14;;;;;;;;;;;25.60;91.70;;;;;;5085268;28;20108;-57
2021/06/23 09:59:44;;;;;;;;;;;25.60;91.80;;;;;;5085875;28;20195;-56
2021/06/23 10:02:27;;;;;;;;;;;25.60;91.70;;;;;;5085458;28;19908;-54
2021/06/23 10:04:56;;;;;;;;;;;25.50;91.70;;;;;;5085833;28;19908;-54
2021/06/23 10:07:40;;;;;;;;;;;25.60;91.70;;;;;;5085330;28;19912;-53
2021/06/23 10:10:07;;;;;;;;;;;25.50;91.70;;;;;;5085774;28;19913;-52
2021/06/23 10:12:33;;;;;;;;;;;25.60;91.80;;;;;;5085376;28;19915;-55
2021/06/23 10:14:59;;;;;;;;;;;25.60;91.70;;;;;;5085642;28;19940;-61
2021/06/23 10:17:26;;;;;;;;;;;25.50;91.70;;;;;;5085229;28;19916;-57
2021/06/23 10:19:53;;;;;;;;;;;25.50;91.80;;;;;;5085561;28;19908;-55
2021/06/23 10:22:20;;;;;;;;;;;25.50;91.80;;;;;;5085358;28;19912;-55
2021/06/23 10:24:49;;;;;;;;;;;25.50;91.80;;;;;;5085394;28;20189;-56
2021/06/23 10:27:16;;;;;;;;;;;25.50;91.80;;;;;;5084811;28;19947;-56
2021/06/23 10:29:44;;;;;;;;;;;25.50;91.80;;;;;;5084715;28;19924;-56
2021/06/23 10:32:10;;;;;;;;;;;25.50;91.80;;;;;;5085009;28;19911;-52
2021/06/23 10:34:37;;;;;;;;;;;25.50;91.80;;;;;;5085256;28;19912;-54
2021/06/23 10:37:03;;;;;;;;;;;25.40;91.80;;;;;;5084805;28;19904;-52
2021/06/23 10:39:31;;;;;;;;;;;25.40;91.90;;;;;;5085071;28;20248;-55
2021/06/23 10:41:58;;;;;;;;;;;25.40;91.80;;;;;;5085124;28;19904;-56
2021/06/23 10:44:26;;;;;;;;;;;25.40;91.80;;;;;;5084908;28;19938;-56
2021/06/23 10:46:56;;;;;;;;;;;25.40;91.80;;;;;;5084729;28;19932;-57
2021/06/23 10:49:41;;;;;;;;;;;25.50;91.90;;;;;;5084902;28;20272;-53
2021/06/23 10:52:22;;;;;;;;;;;25.40;91.80;;;;;;5084625;28;19935;-56
2021/06/23 10:54:49;;;;;;;;;;;25.40;91.80;;;;;;5084765;28;20193;-54
2021/06/23 10:57:39;;;;;;;;;;;25.40;91.90;;;;;;5084744;28;20235;-53
2021/06/23 11:00:28;;;;;;;;;;;25.40;91.90;;;;;;5055876;28;19979;-54
2021/06/23 11:03:00;;;;;;;;;;;25.40;91.80;;;;;;5084542;28;19936;-54
2021/06/23 11:05:33;;;;;;;;;;;25.40;91.90;;;;;;5084804;28;19912;-55
2021/06/23 11:07:59;;;;;;;;;;;25.40;91.80;;;;;;5084052;28;19904;-56
2021/06/23 11:10:38;;;;;;;;;;;25.40;91.80;;;;;;5084999;28;19913;-57
2021/06/23 11:13:08;;;;;;;;;;;25.40;91.80;;;;;;5084417;28;19905;-56
2021/06/23 11:15:36;;;;;;;;;;;25.40;91.70;;;;;;5084348;28;19916;-56
2021/06/23 11:18:19;;;;;;;;;;;25.50;91.80;;;;;;5084515;28;19904;-55
2021/06/23 11:20:49;;;;;;;;;;;25.40;91.70;;;;;;5084666;28;19920;-55
2021/06/23 11:23:33;;;;;;;;;;;25.50;91.70;;;;;;5084506;28;19971;-55
2021/06/23 11:26:00;;;;;;;;;;;25.50;91.60;;;;;;5084436;28;19908;-52
2021/06/23 11:28:26;;;;;;;;;;;25.50;91.60;;;;;;5083982;28;19959;-57
2021/06/23 11:30:53;;;;;;;;;;;25.50;91.80;;;;;;5084242;28;19950;-55
2021/06/23 11:33:28;;;;;;;;;;;25.50;91.60;;;;;;5084183;28;20078;-54
2021/06/23 11:35:57;;;;;;;;;;;25.50;91.60;;;;;;5084360;28;19916;-54
2021/06/23 11:38:24;;;;;;;;;;;25.50;91.60;;;;;;5084128;28;20078;-57
2021/06/23 11:40:51;;;;;;;;;;;25.50;91.60;;;;;;5084467;28;19909;-54
2021/06/23 11:43:17;;;;;;;;;;;25.50;91.60;;;;;;5083893;28;20089;-55
2021/06/23 11:45:44;;;;;;;;;;;25.70;91.80;;;;;;5084118;28;19908;-55
2021/06/23 11:48:11;;;;;;;;;;;25.90;91.10;;;;;;5083943;28;20246;-55
2021/06/23 11:50:40;;;;;;;;;;;25.90;90.90;;;;;;5083821;28;19993;-59
2021/06/23 11:53:08;;;;;;;;;;;25.90;91.00;;;;;;5083902;28;19904;-54
2021/06/23 11:55:34;;;;;;;;;;;26.00;91.00;;;;;;5084463;28;19915;-54
2021/06/23 11:58:01;;;;;;;;;;;25.90;91.00;;;;;;5083905;28;19915;-54
2021/06/23 12:00:29;;;;;;;;;;;25.90;91.10;;;;;;5083858;28;19916;-54
2021/06/23 12:02:56;;;;;;;;;;;26.00;91.00;;;;;;5083929;28;19930;-58
2021/06/23 12:05:22;;;;;;;;;;;26.00;91.10;;;;;;5084213;28;20128;-54
2021/06/23 12:07:49;;;;;;;;;;;26.00;91.10;;;;;;5083963;28;19908;-54
2021/06/23 12:10:16;;;;;;;;;;;26.00;91.10;;;;;;5084451;28;19908;-52
2021/06/23 12:12:44;;;;;;;;;;;26.00;91.00;;;;;;5083691;28;20139;-54
2021/06/23 12:15:12;;;;;;;;;;;26.10;91.00;;;;;;5084269;28;19908;-53
2021/06/23 12:17:39;;;;;;;;;;;26.10;91.00;;;;;;5082781;28;19972;-55
2021/06/23 12:20:06;;;;;;;;;;;26.20;90.90;;;;;;5087023;28;19909;-55
2021/06/23 12:22:33;;;;;;;;;;;26.20;90.90;;;;;;5087787;28;19930;-52
2021/06/23 12:25:01;;;;;;;;;;;26.20;90.70;;;;;;5087842;28;19916;-52
2021/06/23 12:27:27;;;;;;;;;;;26.30;90.60;;;;;;5087203;28;19980;-53
2021/06/23 12:29:53;;;;;;;;;;;26.40;90.50;;;;;;5087713;28;19974;-56
2021/06/23 12:32:20;;;;;;;;;;;26.40;90.40;;;;;;5087363;28;19905;-58
2021/06/23 12:34:46;;;;;;;;;;;26.50;90.30;;;;;;5087403;28;19936;-53
2021/06/23 12:37:12;;;;;;;;;;;26.50;90.20;;;;;;5087209;28;19904;-57
2021/06/23 12:39:39;;;;;;;;;;;26.50;90.10;;;;;;5086061;28;20071;-56
2021/06/23 12:42:05;;;;;;;;;;;26.50;90.20;;;;;;5086904;28;20176;-53
2021/06/23 12:44:31;;;;;;;;;;;26.60;89.80;;;;;;5087285;28;20089;-55
2021/06/23 12:46:58;;;;;;;;;;;26.60;89.90;;;;;;5087172;28;19962;-56
2021/06/23 12:49:24;;;;;;;;;;;26.70;89.60;;;;;;5087008;28;19916;-58
2021/06/23 12:51:51;;;;;;;;;;;26.80;89.70;;;;;;5087233;28;20018;-55
2021/06/23 12:54:17;;;;;;;;;;;26.90;89.70;;;;;;5087119;28;19913;-54
2021/06/23 12:56:44;;;;;;;;;;;26.90;89.70;;;;;;5086837;28;19927;-56
2021/06/23 12:59:10;;;;;;;;;;;26.90;89.70;;;;;;5086580;28;19912;-53
2021/06/23 13:01:36;;;;;;;;;;;27.00;89.20;;;;;;5086699;28;19911;-54
2021/06/23 13:04:02;;;;;;;;;;;27.00;89.20;;;;;;5086951;28;19987;-56
2021/06/23 13:06:28;;;;;;;;;;;27.10;88.80;;;;;;5086582;28;19910;-55
2021/06/23 13:08:55;;;;;;;;;;;27.20;88.90;;;;;;5086657;28;19916;-54
2021/06/23 13:11:21;;;;;;;;;;;27.20;88.80;;;;;;5086676;28;19904;-53
2021/06/23 13:13:47;;;;;;;;;;;27.20;88.70;;;;;;5086596;28;20006;-55
2021/06/23 13:16:17;;;;;;;;;;;27.30;88.80;;;;;;5086524;28;19927;-56
2021/06/23 13:18:45;;;;;;;;;;;27.30;88.90;;;;;;5086557;28;20184;-53
2021/06/23 13:21:11;;;;;;;;;;;27.30;88.80;;;;;;5086370;28;19905;-57
2021/06/23 13:23:38;;;;;;;;;;;27.30;88.80;;;;;;5086683;28;20116;-53
2021/06/23 13:26:04;;;;;;;;;;;27.40;88.40;;;;;;5086330;28;19912;-55
2021/06/23 13:28:30;;;;;;;;;;;27.40;88.50;;;;;;5085967;28;20059;-55
2021/06/23 13:30:57;;;;;;;;;;;27.50;88.50;;;;;;5085939;28;19904;-55
2021/06/23 13:33:23;;;;;;;;;;;27.50;88.50;;;;;;5086151;28;19904;-52
2021/06/23 13:35:49;;;;;;;;;;;27.50;88.40;;;;;;5086056;28;19904;-53
2021/06/23 13:38:15;;;;;;;;;;;27.50;88.50;;;;;;5086013;28;19942;-55
2021/06/23 13:40:42;;;;;;;;;;;27.60;88.90;;;;;;5085905;28;19920;-55
2021/06/23 13:43:08;;;;;;;;;;;27.60;88.90;;;;;;5085799;28;19911;-58
2021/06/23 13:45:34;;;;;;;;;;;27.60;89.00;;;;;;5085738;28;19979;-57
2021/06/23 13:48:04;;;;;;;;;;;27.60;88.80;;;;;;5085845;28;19942;-56
2021/06/23 13:50:30;;;;;;;;;;;27.60;88.60;;;;;;5086169;28;19913;-59
2021/06/23 13:52:56;;;;;;;;;;;27.60;88.60;;;;;;5085877;28;19904;-55
2021/06/23 13:55:26;;;;;;;;;;;27.70;88.60;;;;;;5086185;28;19944;-57
2021/06/23 13:57:55;;;;;;;;;;;27.70;87.60;;;;;;5085459;28;19983;-63
2021/06/23 14:00:22;;;;;;;;;;;27.80;87.40;;;;;;5086086;28;19916;-57
2021/06/23 14:02:48;;;;;;;;;;;27.80;87.30;;;;;;5085900;28;19904;-54
2021/06/23 14:05:15;;;;;;;;;;;27.80;86.80;;;;;;5085825;28;19912;-58
2021/06/23 14:07:42;;;;;;;;;;;27.90;87.10;;;;;;5085478;28;20097;-57
2021/06/23 14:10:09;;;;;;;;;;;27.80;87.00;;;;;;5101371;28;20101;-58
2021/06/23 14:12:35;;;;;;;;;;;27.90;86.50;;;;;;5100958;28;19904;-57
2021/06/23 14:15:01;;;;;;;;;;;27.90;86.90;;;;;;5085645;28;19955;-54
2021/06/23 14:17:28;;;;;;;;;;;27.90;86.90;;;;;;5085423;28;19905;-55
2021/06/23 14:19:55;;;;;;;;;;;27.90;86.80;;;;;;5084333;28;20193;-55
2021/06/23 14:22:22;;;;;;;;;;;27.90;86.80;;;;;;5085240;28;19912;-53
2021/06/23 14:24:48;;;;;;;;;;;27.90;85.00;;;;;;5085577;28;20071;-52
2021/06/23 14:27:14;;;;;;;;;;;27.90;85.60;;;;;;5100865;28;19920;-59
2021/06/23 14:29:40;;;;;;;;;;;28.00;85.80;;;;;;5084841;28;19970;-53
2021/06/23 14:32:07;;;;;;;;;;;28.00;85.60;;;;;;5085112;28;19905;-55
2021/06/23 14:34:33;;;;;;;;;;;28.00;85.10;;;;;;5085330;28;19912;-56
2021/06/23 14:36:59;;;;;;;;;;;28.00;84.70;;;;;;5084856;28;19927;-60
2021/06/23 14:39:26;;;;;;;;;;;28.00;85.20;;;;;;5085087;28;19983;-51